sensor_id;sensor_type;location;lat;lon;timestamp;temperature;humidity
18624;DHT22;9441;51.420;7.036;2022-08-19T00:00:45;19.20;99.90
18624;DHT22;9441;51.420;7.036;2022-08-19T00:01:48;19.20;99.90
18624;DHT22;9441;51.420;7.036;2022-08-19T00:02:51;19.30;99.90
18624;DHT22;9441;51.420;7.036;2022-08-19T00:03:53;19.30;99.90
18624;DHT22;9441;51.420;7.036;2022-08-19T00:04:55;19.30;99.90
18624;DHT22;9441;51.420;7.036;2022-08-19T00:05:56;19.30;99.90
18624;DHT22;9441;51.420;7.036;2022-08-19T00:06:59;19.30;99.90
18624;DHT22;9441;51.420;7.036;2022-08-19T00:08:00;19.20;99.90
18624;DHT22;9441;51.420;7.036;2022-08-19T00:09:03;19.10;99.90
18624;DHT22;9441;51.420;7.036;2022-08-19T00:10:06;18.90;99.90
18624;DHT22;9441;51.420;7.036;2022-08-19T00:11:09;18.90;99.90
18624;DHT22;9441;51.420;7.036;2022-08-19T00:12:10;18.90;99.90
18624;DHT22;9441;51.420;7.036;2022-08-19T00:13:13;18.90;99.90
18624;DHT22;9441;51.420;7.036;2022-08-19T00:14:16;18.90;99.90
18624;DHT22;9441;51.420;7.036;2022-08-19T00:15:20;18.90;99.90
18624;DHT22;9441;51.420;7.036;2022-08-19T00:16:23;19.00;99.90
18624;DHT22;9441;51.420;7.036;2022-08-19T00:17:25;19.00;99.90
18624;DHT22;9441;51.420;7.036;2022-08-19T00:18:27;18.90;99.90
18624;DHT22;9441;51.420;7.036;2022-08-19T00:19:30;19.00;99.90
18624;DHT22;9441;51.420;7.036;2022-08-19T00:20:31;19.00;99.90
18624;DHT22;9441;51.420;7.036;2022-08-19T00:21:33;19.00;99.90
18624;DHT22;9441;51.420;7.036;2022-08-19T00:22:37;19.10;99.90
18624;DHT22;9441;51.420;7.036;2022-08-19T00:23:39;19.10;99.90
18624;DHT22;9441;51.420;7.036;2022-08-19T00:24:41;19.00;99.90
18624;DHT22;9441;51.420;7.036;2022-08-19T00:25:44;18.90;99.90
18624;DHT22;9441;51.420;7.036;2022-08-19T00:26:45;18.90;99.90
18624;DHT22;9441;51.420;7.036;2022-08-19T00:27:47;18.90;99.90
18624;DHT22;9441;51.420;7.036;2022-08-19T00:28:49;18.80;99.90
18624;DHT22;9441;51.420;7.036;2022-08-19T00:29:51;18.80;99.90
18624;DHT22;9441;51.420;7.036;2022-08-19T00:30:52;18.70;99.90
18624;DHT22;9441;51.420;7.036;2022-08-19T00:31:54;18.70;99.90
18624;DHT22;9441;51.420;7.036;2022-08-19T00:32:58;18.70;99.90
18624;DHT22;9441;51.420;7.036;2022-08-19T00:34:01;18.70;99.90
18624;DHT22;9441;51.420;7.036;2022-08-19T00:35:04;18.80;99.90
18624;DHT22;9441;51.420;7.036;2022-08-19T00:36:07;18.80;99.90
18624;DHT22;9441;51.420;7.036;2022-08-19T00:37:10;18.90;99.90
18624;DHT22;9441;51.420;7.036;2022-08-19T00:38:11;18.90;99.90
18624;DHT22;9441;51.420;7.036;2022-08-19T00:39:13;19.00;99.90
18624;DHT22;9441;51.420;7.036;2022-08-19T00:40:15;19.00;99.90
18624;DHT22;9441;51.420;7.036;2022-08-19T00:41:20;19.00;99.90
18624;DHT22;9441;51.420;7.036;2022-08-19T00:42:22;19.10;99.90
18624;DHT22;9441;51.420;7.036;2022-08-19T00:43:29;19.10;99.90
18624;DHT22;9441;51.420;7.036;2022-08-19T00:44:30;19.10;99.90
18624;DHT22;9441;51.420;7.036;2022-08-19T00:45:32;19.10;99.90
18624;DHT22;9441;51.420;7.036;2022-08-19T00:46:36;19.10;99.90
18624;DHT22;9441;51.420;7.036;2022-08-19T00:47:39;19.10;99.90
18624;DHT22;9441;51.420;7.036;2022-08-19T00:48:40;19.10;99.90
18624;DHT22;9441;51.420;7.036;2022-08-19T00:49:46;19.20;99.90
18624;DHT22;9441;51.420;7.036;2022-08-19T00:50:52;19.20;99.90
18624;DHT22;9441;51.420;7.036;2022-08-19T00:52:00;19.10;99.90
18624;DHT22;9441;51.420;7.036;2022-08-19T00:53:02;19.10;99.90
18624;DHT22;9441;51.420;7.036;2022-08-19T00:54:05;19.10;99.90
18624;DHT22;9441;51.420;7.036;2022-08-19T00:55:08;19.00;99.90
18624;DHT22;9441;51.420;7.036;2022-08-19T00:56:12;18.90;99.90
18624;DHT22;9441;51.420;7.036;2022-08-19T00:57:17;18.90;99.90
18624;DHT22;9441;51.420;7.036;2022-08-19T00:58:23;18.80;99.90
18624;DHT22;9441;51.420;7.036;2022-08-19T00:59:25;18.80;99.90
18624;DHT22;9441;51.420;7.036;2022-08-19T01:00:28;18.90;99.90
18624;DHT22;9441;51.420;7.036;2022-08-19T01:01:29;18.90;99.90
18624;DHT22;9441;51.420;7.036;2022-08-19T01:02:32;18.90;99.90
18624;DHT22;9441;51.420;7.036;2022-08-19T01:03:33;18.90;99.90
18624;DHT22;9441;51.420;7.036;2022-08-19T01:04:35;19.00;99.90
18624;DHT22;9441;51.420;7.036;2022-08-19T01:05:39;18.90;99.90
18624;DHT22;9441;51.420;7.036;2022-08-19T01:06:42;18.90;99.90
18624;DHT22;9441;51.420;7.036;2022-08-19T01:07:44;18.90;99.90
18624;DHT22;9441;51.420;7.036;2022-08-19T01:08:46;19.00;99.90
18624;DHT22;9441;51.420;7.036;2022-08-19T01:09:48;18.90;99.90
18624;DHT22;9441;51.420;7.036;2022-08-19T01:10:53;18.90;99.90
18624;DHT22;9441;51.420;7.036;2022-08-19T01:11:55;18.80;99.90
18624;DHT22;9441;51.420;7.036;2022-08-19T01:12:59;18.90;99.90
18624;DHT22;9441;51.420;7.036;2022-08-19T01:14:01;18.90;99.90
18624;DHT22;9441;51.420;7.036;2022-08-19T01:15:06;18.90;99.90
18624;DHT22;9441;51.420;7.036;2022-08-19T01:16:10;19.00;99.90
18624;DHT22;9441;51.420;7.036;2022-08-19T01:17:12;18.90;99.90
18624;DHT22;9441;51.420;7.036;2022-08-19T01:18:17;18.90;99.90
18624;DHT22;9441;51.420;7.036;2022-08-19T01:19:25;18.90;99.90
18624;DHT22;9441;51.420;7.036;2022-08-19T01:20:27;18.80;99.90
18624;DHT22;9441;51.420;7.036;2022-08-19T01:21:32;18.70;99.90
18624;DHT22;9441;51.420;7.036;2022-08-19T01:22:43;18.80;99.90
18624;DHT22;9441;51.420;7.036;2022-08-19T01:23:46;18.80;99.90
18624;DHT22;9441;51.420;7.036;2022-08-19T01:24:47;18.80;99.90
18624;DHT22;9441;51.420;7.036;2022-08-19T01:25:51;18.80;99.90
18624;DHT22;9441;51.420;7.036;2022-08-19T01:26:53;18.80;99.90
18624;DHT22;9441;51.420;7.036;2022-08-19T01:27:55;18.80;99.90
18624;DHT22;9441;51.420;7.036;2022-08-19T01:28:58;18.80;99.90
18624;DHT22;9441;51.420;7.036;2022-08-19T01:30:02;18.80;99.90
18624;DHT22;9441;51.420;7.036;2022-08-19T01:31:04;18.80;99.90
18624;DHT22;9441;51.420;7.036;2022-08-19T01:32:07;18.80;99.90
18624;DHT22;9441;51.420;7.036;2022-08-19T01:33:09;18.80;99.90
18624;DHT22;9441;51.420;7.036;2022-08-19T01:34:11;18.90;99.90
18624;DHT22;9441;51.420;7.036;2022-08-19T01:35:13;18.80;99.90
18624;DHT22;9441;51.420;7.036;2022-08-19T01:36:24;18.80;99.90
18624;DHT22;9441;51.420;7.036;2022-08-19T01:37:26;18.70;99.90
18624;DHT22;9441;51.420;7.036;2022-08-19T01:38:29;18.70;99.90
18624;DHT22;9441;51.420;7.036;2022-08-19T01:39:33;18.80;99.90
18624;DHT22;9441;51.420;7.036;2022-08-19T01:40:38;18.80;99.90
18624;DHT22;9441;51.420;7.036;2022-08-19T01:41:40;18.80;99.90
18624;DHT22;9441;51.420;7.036;2022-08-19T01:42:43;18.80;99.90
18624;DHT22;9441;51.420;7.036;2022-08-19T01:43:44;18.80;99.90
18624;DHT22;9441;51.420;7.036;2022-08-19T01:44:46;18.80;99.90
18624;DHT22;9441;51.420;7.036;2022-08-19T01:45:47;18.70;99.90
18624;DHT22;9441;51.420;7.036;2022-08-19T01:46:50;18.70;99.90
18624;DHT22;9441;51.420;7.036;2022-08-19T01:47:52;18.70;99.90
18624;DHT22;9441;51.420;7.036;2022-08-19T01:48:54;18.80;99.90
18624;DHT22;9441;51.420;7.036;2022-08-19T01:49:55;18.80;99.90
18624;DHT22;9441;51.420;7.036;2022-08-19T01:50:59;18.70;99.90
18624;DHT22;9441;51.420;7.036;2022-08-19T01:52:00;18.80;99.90
18624;DHT22;9441;51.420;7.036;2022-08-19T01:53:05;18.70;99.90
18624;DHT22;9441;51.420;7.036;2022-08-19T01:54:08;18.60;99.90
18624;DHT22;9441;51.420;7.036;2022-08-19T01:55:13;18.70;99.90
18624;DHT22;9441;51.420;7.036;2022-08-19T01:56:15;18.70;99.90
18624;DHT22;9441;51.420;7.036;2022-08-19T01:57:17;18.70;99.90
18624;DHT22;9441;51.420;7.036;2022-08-19T01:58:22;18.70;99.90
18624;DHT22;9441;51.420;7.036;2022-08-19T01:59:25;18.70;99.90
18624;DHT22;9441;51.420;7.036;2022-08-19T02:00:28;18.70;99.90
18624;DHT22;9441;51.420;7.036;2022-08-19T02:01:31;18.70;99.90
18624;DHT22;9441;51.420;7.036;2022-08-19T02:02:33;18.70;99.90
18624;DHT22;9441;51.420;7.036;2022-08-19T02:03:35;18.70;99.90
18624;DHT22;9441;51.420;7.036;2022-08-19T02:04:37;18.70;99.90
18624;DHT22;9441;51.420;7.036;2022-08-19T02:05:39;18.70;99.90
18624;DHT22;9441;51.420;7.036;2022-08-19T02:06:42;18.70;99.90
18624;DHT22;9441;51.420;7.036;2022-08-19T02:07:43;18.70;99.90
18624;DHT22;9441;51.420;7.036;2022-08-19T02:08:45;18.70;99.90
18624;DHT22;9441;51.420;7.036;2022-08-19T02:09:48;18.70;99.90
18624;DHT22;9441;51.420;7.036;2022-08-19T02:10:50;18.60;99.90
18624;DHT22;9441;51.420;7.036;2022-08-19T02:11:51;18.60;99.90
18624;DHT22;9441;51.420;7.036;2022-08-19T02:12:54;18.60;99.90
18624;DHT22;9441;51.420;7.036;2022-08-19T02:13:55;18.50;99.90
18624;DHT22;9441;51.420;7.036;2022-08-19T02:14:57;18.50;99.90
18624;DHT22;9441;51.420;7.036;2022-08-19T02:15:59;18.40;99.90
18624;DHT22;9441;51.420;7.036;2022-08-19T02:17:01;18.50;99.90
18624;DHT22;9441;51.420;7.036;2022-08-19T02:18:02;18.50;99.90
18624;DHT22;9441;51.420;7.036;2022-08-19T02:19:04;18.40;99.90
18624;DHT22;9441;51.420;7.036;2022-08-19T02:20:07;18.40;99.90
18624;DHT22;9441;51.420;7.036;2022-08-19T02:21:10;18.50;99.90
18624;DHT22;9441;51.420;7.036;2022-08-19T02:22:11;18.50;99.90
18624;DHT22;9441;51.420;7.036;2022-08-19T02:23:14;18.50;99.90
18624;DHT22;9441;51.420;7.036;2022-08-19T02:24:16;18.50;99.90
18624;DHT22;9441;51.420;7.036;2022-08-19T02:25:19;18.50;99.90
18624;DHT22;9441;51.420;7.036;2022-08-19T02:26:21;18.50;99.90
18624;DHT22;9441;51.420;7.036;2022-08-19T02:27:24;18.50;99.90
18624;DHT22;9441;51.420;7.036;2022-08-19T02:28:26;18.50;99.90
18624;DHT22;9441;51.420;7.036;2022-08-19T02:29:28;18.50;99.90
18624;DHT22;9441;51.420;7.036;2022-08-19T02:30:30;18.60;99.90
18624;DHT22;9441;51.420;7.036;2022-08-19T02:31:32;18.50;99.90
18624;DHT22;9441;51.420;7.036;2022-08-19T02:32:33;18.50;99.90
18624;DHT22;9441;51.420;7.036;2022-08-19T02:33:35;18.40;99.90
18624;DHT22;9441;51.420;7.036;2022-08-19T02:34:37;18.30;99.90
18624;DHT22;9441;51.420;7.036;2022-08-19T02:35:41;18.30;99.90
18624;DHT22;9441;51.420;7.036;2022-08-19T02:36:43;18.20;99.90
18624;DHT22;9441;51.420;7.036;2022-08-19T02:37:45;18.20;99.90
18624;DHT22;9441;51.420;7.036;2022-08-19T02:39:01;18.30;99.90
18624;DHT22;9441;51.420;7.036;2022-08-19T02:40:03;18.30;99.90
18624;DHT22;9441;51.420;7.036;2022-08-19T02:41:10;18.30;99.90
18624;DHT22;9441;51.420;7.036;2022-08-19T02:42:13;18.30;99.90
18624;DHT22;9441;51.420;7.036;2022-08-19T02:43:14;18.30;99.90
18624;DHT22;9441;51.420;7.036;2022-08-19T02:44:17;18.30;99.90
18624;DHT22;9441;51.420;7.036;2022-08-19T02:45:19;18.30;99.90
18624;DHT22;9441;51.420;7.036;2022-08-19T02:46:23;18.40;99.90
18624;DHT22;9441;51.420;7.036;2022-08-19T02:47:26;18.40;99.90
18624;DHT22;9441;51.420;7.036;2022-08-19T02:48:27;18.40;99.90
18624;DHT22;9441;51.420;7.036;2022-08-19T02:49:31;18.50;99.90
18624;DHT22;9441;51.420;7.036;2022-08-19T02:50:32;18.50;99.90
18624;DHT22;9441;51.420;7.036;2022-08-19T02:51:37;18.50;99.90
18624;DHT22;9441;51.420;7.036;2022-08-19T02:52:39;18.50;99.90
18624;DHT22;9441;51.420;7.036;2022-08-19T02:53:41;18.50;99.90
18624;DHT22;9441;51.420;7.036;2022-08-19T02:54:42;18.50;99.90
18624;DHT22;9441;51.420;7.036;2022-08-19T02:55:46;18.50;99.90
18624;DHT22;9441;51.420;7.036;2022-08-19T02:56:49;18.50;99.90
18624;DHT22;9441;51.420;7.036;2022-08-19T02:57:51;18.50;99.90
18624;DHT22;9441;51.420;7.036;2022-08-19T02:58:52;18.50;99.90
18624;DHT22;9441;51.420;7.036;2022-08-19T02:59:54;18.50;99.90
18624;DHT22;9441;51.420;7.036;2022-08-19T03:00:56;18.50;99.90
18624;DHT22;9441;51.420;7.036;2022-08-19T03:01:58;18.50;99.90
18624;DHT22;9441;51.420;7.036;2022-08-19T03:02:59;18.50;99.90
18624;DHT22;9441;51.420;7.036;2022-08-19T03:04:03;18.50;99.90
18624;DHT22;9441;51.420;7.036;2022-08-19T03:05:07;18.40;99.90
18624;DHT22;9441;51.420;7.036;2022-08-19T03:06:12;18.40;99.90
18624;DHT22;9441;51.420;7.036;2022-08-19T03:07:15;18.40;99.90
18624;DHT22;9441;51.420;7.036;2022-08-19T03:08:16;18.40;99.90
18624;DHT22;9441;51.420;7.036;2022-08-19T03:09:19;18.30;99.90
18624;DHT22;9441;51.420;7.036;2022-08-19T03:10:21;18.20;99.90
18624;DHT22;9441;51.420;7.036;2022-08-19T03:11:25;18.20;99.90
18624;DHT22;9441;51.420;7.036;2022-08-19T03:12:29;18.20;99.90
18624;DHT22;9441;51.420;7.036;2022-08-19T03:13:31;18.20;99.90
18624;DHT22;9441;51.420;7.036;2022-08-19T03:14:32;18.30;99.90
18624;DHT22;9441;51.420;7.036;2022-08-19T03:15:35;18.30;99.90
18624;DHT22;9441;51.420;7.036;2022-08-19T03:16:43;18.20;99.90
18624;DHT22;9441;51.420;7.036;2022-08-19T03:17:45;18.20;99.90
18624;DHT22;9441;51.420;7.036;2022-08-19T03:18:47;18.20;99.90
18624;DHT22;9441;51.420;7.036;2022-08-19T03:19:49;18.30;99.90
18624;DHT22;9441;51.420;7.036;2022-08-19T03:20:52;18.30;99.90
18624;DHT22;9441;51.420;7.036;2022-08-19T03:21:55;18.30;99.90
18624;DHT22;9441;51.420;7.036;2022-08-19T03:22:56;18.40;99.90
18624;DHT22;9441;51.420;7.036;2022-08-19T03:24:00;18.40;99.90
18624;DHT22;9441;51.420;7.036;2022-08-19T03:25:02;18.50;99.90
18624;DHT22;9441;51.420;7.036;2022-08-19T03:26:05;18.30;99.90
18624;DHT22;9441;51.420;7.036;2022-08-19T03:27:06;18.20;99.90
18624;DHT22;9441;51.420;7.036;2022-08-19T03:28:11;18.10;99.90
18624;DHT22;9441;51.420;7.036;2022-08-19T03:29:14;18.10;99.90
18624;DHT22;9441;51.420;7.036;2022-08-19T03:30:16;18.20;99.90
18624;DHT22;9441;51.420;7.036;2022-08-19T03:31:19;18.20;99.90
18624;DHT22;9441;51.420;7.036;2022-08-19T03:32:23;18.20;99.90
18624;DHT22;9441;51.420;7.036;2022-08-19T03:33:24;18.20;99.90
18624;DHT22;9441;51.420;7.036;2022-08-19T03:34:29;18.20;99.90
18624;DHT22;9441;51.420;7.036;2022-08-19T03:35:30;18.20;99.90
18624;DHT22;9441;51.420;7.036;2022-08-19T03:36:32;18.10;99.90
18624;DHT22;9441;51.420;7.036;2022-08-19T03:37:34;18.00;99.90
18624;DHT22;9441;51.420;7.036;2022-08-19T03:38:37;18.00;99.90
18624;DHT22;9441;51.420;7.036;2022-08-19T03:39:40;18.00;99.90
18624;DHT22;9441;51.420;7.036;2022-08-19T03:40:42;18.10;99.90
18624;DHT22;9441;51.420;7.036;2022-08-19T03:41:46;18.20;99.90
18624;DHT22;9441;51.420;7.036;2022-08-19T03:42:47;18.20;99.90
18624;DHT22;9441;51.420;7.036;2022-08-19T03:43:52;18.30;99.90
18624;DHT22;9441;51.420;7.036;2022-08-19T03:44:54;18.30;99.90
18624;DHT22;9441;51.420;7.036;2022-08-19T03:46:00;18.30;99.90
18624;DHT22;9441;51.420;7.036;2022-08-19T03:47:04;18.30;99.90
18624;DHT22;9441;51.420;7.036;2022-08-19T03:48:06;18.30;99.90
18624;DHT22;9441;51.420;7.036;2022-08-19T03:49:08;18.30;99.90
18624;DHT22;9441;51.420;7.036;2022-08-19T03:50:11;18.30;99.90
18624;DHT22;9441;51.420;7.036;2022-08-19T03:51:17;18.40;99.90
18624;DHT22;9441;51.420;7.036;2022-08-19T03:52:19;18.40;99.90
18624;DHT22;9441;51.420;7.036;2022-08-19T03:53:20;18.30;99.90
18624;DHT22;9441;51.420;7.036;2022-08-19T03:54:24;18.40;99.90
18624;DHT22;9441;51.420;7.036;2022-08-19T03:55:26;18.30;99.90
18624;DHT22;9441;51.420;7.036;2022-08-19T03:56:27;18.20;99.90
18624;DHT22;9441;51.420;7.036;2022-08-19T03:57:29;18.30;99.90
18624;DHT22;9441;51.420;7.036;2022-08-19T03:58:31;18.20;99.90
18624;DHT22;9441;51.420;7.036;2022-08-19T03:59:36;18.20;99.90
18624;DHT22;9441;51.420;7.036;2022-08-19T04:00:41;18.10;99.90
18624;DHT22;9441;51.420;7.036;2022-08-19T04:01:43;18.10;99.90
18624;DHT22;9441;51.420;7.036;2022-08-19T04:02:44;18.10;99.90
18624;DHT22;9441;51.420;7.036;2022-08-19T04:03:47;18.20;99.90
18624;DHT22;9441;51.420;7.036;2022-08-19T04:04:48;18.20;99.90
18624;DHT22;9441;51.420;7.036;2022-08-19T04:05:50;18.20;99.90
18624;DHT22;9441;51.420;7.036;2022-08-19T04:06:52;18.10;99.90
18624;DHT22;9441;51.420;7.036;2022-08-19T04:07:54;18.10;99.90
18624;DHT22;9441;51.420;7.036;2022-08-19T04:08:59;18.20;99.90
18624;DHT22;9441;51.420;7.036;2022-08-19T04:10:02;18.30;99.90
18624;DHT22;9441;51.420;7.036;2022-08-19T04:11:07;18.40;99.90
18624;DHT22;9441;51.420;7.036;2022-08-19T04:12:09;18.40;99.90
18624;DHT22;9441;51.420;7.036;2022-08-19T04:13:11;18.40;99.90
18624;DHT22;9441;51.420;7.036;2022-08-19T04:14:14;18.50;99.90
18624;DHT22;9441;51.420;7.036;2022-08-19T04:15:18;18.50;99.90
18624;DHT22;9441;51.420;7.036;2022-08-19T04:16:21;18.40;99.90
18624;DHT22;9441;51.420;7.036;2022-08-19T04:17:23;18.30;99.90
18624;DHT22;9441;51.420;7.036;2022-08-19T04:18:24;18.30;99.90
18624;DHT22;9441;51.420;7.036;2022-08-19T04:19:28;18.30;99.90
18624;DHT22;9441;51.420;7.036;2022-08-19T04:20:30;18.20;99.90
18624;DHT22;9441;51.420;7.036;2022-08-19T04:21:32;18.10;99.90
18624;DHT22;9441;51.420;7.036;2022-08-19T04:22:33;18.20;99.90
18624;DHT22;9441;51.420;7.036;2022-08-19T04:23:35;18.20;99.90
18624;DHT22;9441;51.420;7.036;2022-08-19T04:24:37;18.10;99.90
18624;DHT22;9441;51.420;7.036;2022-08-19T04:25:41;18.20;99.90
18624;DHT22;9441;51.420;7.036;2022-08-19T04:26:43;18.30;99.90
18624;DHT22;9441;51.420;7.036;2022-08-19T04:27:45;18.30;99.90
18624;DHT22;9441;51.420;7.036;2022-08-19T04:28:47;18.30;99.90
18624;DHT22;9441;51.420;7.036;2022-08-19T04:29:49;18.20;99.90
18624;DHT22;9441;51.420;7.036;2022-08-19T04:30:55;18.20;99.90
18624;DHT22;9441;51.420;7.036;2022-08-19T04:31:57;18.20;99.90
18624;DHT22;9441;51.420;7.036;2022-08-19T04:33:00;18.20;99.90
18624;DHT22;9441;51.420;7.036;2022-08-19T04:34:03;18.30;99.90
18624;DHT22;9441;51.420;7.036;2022-08-19T04:35:06;18.40;99.90
18624;DHT22;9441;51.420;7.036;2022-08-19T04:36:10;18.40;99.90
18624;DHT22;9441;51.420;7.036;2022-08-19T04:37:16;18.40;99.90
18624;DHT22;9441;51.420;7.036;2022-08-19T04:38:20;18.30;99.90
18624;DHT22;9441;51.420;7.036;2022-08-19T04:39:25;18.40;99.90
18624;DHT22;9441;51.420;7.036;2022-08-19T04:40:48;18.40;99.90
18624;DHT22;9441;51.420;7.036;2022-08-19T04:42:08;18.50;99.90
18624;DHT22;9441;51.420;7.036;2022-08-19T04:43:28;18.50;99.90
18624;DHT22;9441;51.420;7.036;2022-08-19T04:44:31;18.50;99.90
18624;DHT22;9441;51.420;7.036;2022-08-19T04:45:33;18.50;99.90
18624;DHT22;9441;51.420;7.036;2022-08-19T04:46:37;18.50;99.90
18624;DHT22;9441;51.420;7.036;2022-08-19T04:47:40;18.50;99.90
18624;DHT22;9441;51.420;7.036;2022-08-19T04:48:44;18.50;99.90
18624;DHT22;9441;51.420;7.036;2022-08-19T04:49:46;18.50;99.90
18624;DHT22;9441;51.420;7.036;2022-08-19T04:50:48;18.50;99.90
18624;DHT22;9441;51.420;7.036;2022-08-19T04:51:51;18.50;99.90
18624;DHT22;9441;51.420;7.036;2022-08-19T04:52:54;18.40;99.90
18624;DHT22;9441;51.420;7.036;2022-08-19T04:53:57;18.40;99.90
18624;DHT22;9441;51.420;7.036;2022-08-19T04:54:59;18.30;99.90
18624;DHT22;9441;51.420;7.036;2022-08-19T04:56:06;18.20;99.90
18624;DHT22;9441;51.420;7.036;2022-08-19T04:57:09;18.30;99.90
18624;DHT22;9441;51.420;7.036;2022-08-19T04:58:10;18.30;99.90
18624;DHT22;9441;51.420;7.036;2022-08-19T04:59:12;18.30;99.90
18624;DHT22;9441;51.420;7.036;2022-08-19T05:00:14;18.30;99.90
18624;DHT22;9441;51.420;7.036;2022-08-19T05:01:18;18.30;99.90
18624;DHT22;9441;51.420;7.036;2022-08-19T05:02:21;18.30;99.90
18624;DHT22;9441;51.420;7.036;2022-08-19T05:03:25;18.30;99.90
18624;DHT22;9441;51.420;7.036;2022-08-19T05:04:26;18.40;99.90
18624;DHT22;9441;51.420;7.036;2022-08-19T05:05:29;18.40;99.90
18624;DHT22;9441;51.420;7.036;2022-08-19T05:06:33;18.40;99.90
18624;DHT22;9441;51.420;7.036;2022-08-19T05:07:36;18.30;99.90
18624;DHT22;9441;51.420;7.036;2022-08-19T05:08:39;18.40;99.90
18624;DHT22;9441;51.420;7.036;2022-08-19T05:09:42;18.30;99.90
18624;DHT22;9441;51.420;7.036;2022-08-19T05:10:44;18.40;99.90
18624;DHT22;9441;51.420;7.036;2022-08-19T05:11:46;18.40;99.90
18624;DHT22;9441;51.420;7.036;2022-08-19T05:12:49;18.40;99.90
18624;DHT22;9441;51.420;7.036;2022-08-19T05:13:50;18.40;99.90
18624;DHT22;9441;51.420;7.036;2022-08-19T05:14:52;18.40;99.90
18624;DHT22;9441;51.420;7.036;2022-08-19T05:15:54;18.30;99.90
18624;DHT22;9441;51.420;7.036;2022-08-19T05:16:56;18.30;99.90
18624;DHT22;9441;51.420;7.036;2022-08-19T05:17:59;18.30;99.90
18624;DHT22;9441;51.420;7.036;2022-08-19T05:19:21;18.30;99.90
18624;DHT22;9441;51.420;7.036;2022-08-19T05:20:40;18.40;99.90
18624;DHT22;9441;51.420;7.036;2022-08-19T05:22:00;18.40;99.90
18624;DHT22;9441;51.420;7.036;2022-08-19T05:23:20;18.40;99.90
18624;DHT22;9441;51.420;7.036;2022-08-19T05:24:23;18.40;99.90
18624;DHT22;9441;51.420;7.036;2022-08-19T05:25:24;18.40;99.90
18624;DHT22;9441;51.420;7.036;2022-08-19T05:26:27;18.60;99.90
18624;DHT22;9441;51.420;7.036;2022-08-19T05:27:28;18.80;99.90
18624;DHT22;9441;51.420;7.036;2022-08-19T05:28:30;18.80;99.90
18624;DHT22;9441;51.420;7.036;2022-08-19T05:29:32;18.70;99.90
18624;DHT22;9441;51.420;7.036;2022-08-19T05:30:35;18.70;99.90
18624;DHT22;9441;51.420;7.036;2022-08-19T05:31:37;18.60;99.90
18624;DHT22;9441;51.420;7.036;2022-08-19T05:32:40;18.70;99.90
18624;DHT22;9441;51.420;7.036;2022-08-19T05:33:43;18.70;99.90
18624;DHT22;9441;51.420;7.036;2022-08-19T05:34:44;18.70;99.90
18624;DHT22;9441;51.420;7.036;2022-08-19T05:35:47;18.60;99.90
18624;DHT22;9441;51.420;7.036;2022-08-19T05:36:52;18.70;99.90
18624;DHT22;9441;51.420;7.036;2022-08-19T05:37:57;18.60;99.90
18624;DHT22;9441;51.420;7.036;2022-08-19T05:38:58;18.70;99.90
18624;DHT22;9441;51.420;7.036;2022-08-19T05:40:00;18.70;99.90
18624;DHT22;9441;51.420;7.036;2022-08-19T05:41:06;18.70;99.90
18624;DHT22;9441;51.420;7.036;2022-08-19T05:42:11;18.70;99.90
18624;DHT22;9441;51.420;7.036;2022-08-19T05:43:12;18.70;99.90
18624;DHT22;9441;51.420;7.036;2022-08-19T05:44:17;18.80;99.90
18624;DHT22;9441;51.420;7.036;2022-08-19T05:45:18;18.70;99.90
18624;DHT22;9441;51.420;7.036;2022-08-19T05:46:21;18.80;99.90
18624;DHT22;9441;51.420;7.036;2022-08-19T05:47:23;18.80;99.90
18624;DHT22;9441;51.420;7.036;2022-08-19T05:48:25;18.80;99.90
18624;DHT22;9441;51.420;7.036;2022-08-19T05:49:29;18.90;99.90
18624;DHT22;9441;51.420;7.036;2022-08-19T05:50:32;18.90;99.90
18624;DHT22;9441;51.420;7.036;2022-08-19T05:51:33;18.90;99.90
18624;DHT22;9441;51.420;7.036;2022-08-19T05:52:37;19.10;99.90
18624;DHT22;9441;51.420;7.036;2022-08-19T05:53:39;19.20;99.90
18624;DHT22;9441;51.420;7.036;2022-08-19T05:54:41;19.20;99.90
18624;DHT22;9441;51.420;7.036;2022-08-19T05:55:43;19.30;99.90
18624;DHT22;9441;51.420;7.036;2022-08-19T05:56:45;19.30;99.90
18624;DHT22;9441;51.420;7.036;2022-08-19T05:57:48;19.40;99.90
18624;DHT22;9441;51.420;7.036;2022-08-19T05:58:49;19.40;99.90
18624;DHT22;9441;51.420;7.036;2022-08-19T05:59:51;19.40;99.90
18624;DHT22;9441;51.420;7.036;2022-08-19T06:00:52;19.30;99.90
18624;DHT22;9441;51.420;7.036;2022-08-19T06:01:56;19.40;99.90
18624;DHT22;9441;51.420;7.036;2022-08-19T06:02:57;19.20;99.90
18624;DHT22;9441;51.420;7.036;2022-08-19T06:04:00;19.10;99.90
18624;DHT22;9441;51.420;7.036;2022-08-19T06:05:03;19.10;99.90
18624;DHT22;9441;51.420;7.036;2022-08-19T06:06:09;19.10;99.90
18624;DHT22;9441;51.420;7.036;2022-08-19T06:07:11;19.10;99.90
18624;DHT22;9441;51.420;7.036;2022-08-19T06:08:13;19.10;99.90
18624;DHT22;9441;51.420;7.036;2022-08-19T06:09:14;19.10;99.90
18624;DHT22;9441;51.420;7.036;2022-08-19T06:10:16;19.20;99.90
18624;DHT22;9441;51.420;7.036;2022-08-19T06:11:20;19.30;99.90
18624;DHT22;9441;51.420;7.036;2022-08-19T06:12:22;19.30;99.90
18624;DHT22;9441;51.420;7.036;2022-08-19T06:13:31;19.30;99.90
18624;DHT22;9441;51.420;7.036;2022-08-19T06:14:34;19.40;99.90
18624;DHT22;9441;51.420;7.036;2022-08-19T06:15:36;19.50;99.90
18624;DHT22;9441;51.420;7.036;2022-08-19T06:16:39;19.40;99.90
18624;DHT22;9441;51.420;7.036;2022-08-19T06:17:42;19.50;99.90
18624;DHT22;9441;51.420;7.036;2022-08-19T06:18:44;19.60;99.90
18624;DHT22;9441;51.420;7.036;2022-08-19T06:19:46;19.60;99.90
18624;DHT22;9441;51.420;7.036;2022-08-19T06:20:49;19.60;99.90
18624;DHT22;9441;51.420;7.036;2022-08-19T06:21:52;19.80;99.90
18624;DHT22;9441;51.420;7.036;2022-08-19T06:22:53;19.70;99.90
18624;DHT22;9441;51.420;7.036;2022-08-19T06:23:56;19.60;99.90
18624;DHT22;9441;51.420;7.036;2022-08-19T06:24:57;19.70;99.90
18624;DHT22;9441;51.420;7.036;2022-08-19T06:25:59;19.70;99.90
18624;DHT22;9441;51.420;7.036;2022-08-19T06:27:01;19.60;99.90
18624;DHT22;9441;51.420;7.036;2022-08-19T06:28:06;19.70;99.90
18624;DHT22;9441;51.420;7.036;2022-08-19T06:29:08;19.80;99.90
18624;DHT22;9441;51.420;7.036;2022-08-19T06:30:11;19.90;99.90
18624;DHT22;9441;51.420;7.036;2022-08-19T06:31:14;19.80;99.90
18624;DHT22;9441;51.420;7.036;2022-08-19T06:32:18;19.90;99.90
18624;DHT22;9441;51.420;7.036;2022-08-19T06:33:20;20.00;99.90
18624;DHT22;9441;51.420;7.036;2022-08-19T06:34:21;20.00;99.90
18624;DHT22;9441;51.420;7.036;2022-08-19T06:35:23;19.90;99.90
18624;DHT22;9441;51.420;7.036;2022-08-19T06:36:27;20.00;99.90
18624;DHT22;9441;51.420;7.036;2022-08-19T06:37:32;19.90;99.90
18624;DHT22;9441;51.420;7.036;2022-08-19T06:38:34;19.90;99.90
18624;DHT22;9441;51.420;7.036;2022-08-19T06:39:37;19.90;99.90
18624;DHT22;9441;51.420;7.036;2022-08-19T06:40:39;19.80;99.90
18624;DHT22;9441;51.420;7.036;2022-08-19T06:41:43;19.90;99.90
18624;DHT22;9441;51.420;7.036;2022-08-19T06:42:51;19.90;99.90
18624;DHT22;9441;51.420;7.036;2022-08-19T06:43:53;19.70;99.90
18624;DHT22;9441;51.420;7.036;2022-08-19T06:44:55;19.80;99.90